Terminal Aerodrome Forecast
Issued by NWS

Home | Current Version | Previous Version | Text Only | Print | Product List | Glossary On
Versions: 1 2 3 4 5 6 7 8 9 10 11 12
000
FTUS46 KMFR 291700
TAFLMT
TAF
KLMT 291733Z 2918/3018 VRB03KT P6SM FEW200
     FM292200 33009KT P6SM VCTS FEW080CB SCT100 SCT300
     FM300500 VRB03KT P6SM FEW300=

USA.gov is the U.S. government's official web portal to all federal, state and local government web resources and services.